Time,TemperatureF,DewpointF,PressureIn,WindDirection,WindDirectionDegrees,WindSpeedMPH,WindSpeedGustMPH,Humidity,HourlyPrecipIn,Conditions,Clouds,dailyrainin,SoftwareType,DateUTC
2016-12-06 00:00:00,61.0,61.0,29.65,NNW,333,0.0,-999.0,99,-99.99,,,-99.99,,2016-12-06 06:00:00,
2016-12-06 00:14:00,62.0,62.0,29.62,South,173,0.0,0.0,99,-99.99,,,-99.99,,2016-12-06 06:14:00,
2016-12-06 00:24:00,62.0,62.0,29.62,South,173,0.0,0.0,99,-99.99,,,-99.99,,2016-12-06 06:24:00,
2016-12-06 00:36:00,62.0,62.0,29.62,SE,143,0.0,0.0,99,-99.99,,,-99.99,,2016-12-06 06:36:00,
2016-12-06 00:45:00,63.0,63.0,29.65,North,355,1.0,12.0,99,-99.99,,,-99.99,,2016-12-06 06:45:00,
2016-12-06 00:54:00,63.0,63.0,29.65,North,355,1.0,12.0,99,-99.99,,,-99.99,,2016-12-06 06:54:00,
2016-12-06 01:05:00,64.0,64.0,29.62,ENE,74,0.0,2.0,99,-99.99,,,-99.99,,2016-12-06 07:05:00,
2016-12-06 01:13:00,64.0,64.0,29.62,North,-9999,-999.9,-999.0,99,-99.99,,,-99.99,,2016-12-06 07:13:00,
2016-12-06 01:25:00,66.0,66.0,29.63,SSE,161,0.0,0.0,100,-99.99,,,-99.99,,2016-12-06 07:25:00,
2016-12-06 01:35:00,66.0,66.0,29.62,SSE,161,0.0,0.0,100,-99.99,,,-99.99,,2016-12-06 07:35:00,
2016-12-06 01:46:00,66.0,66.0,29.61,SSE,161,0.0,0.0,100,-99.99,,,-99.99,,2016-12-06 07:46:00,
2016-12-06 01:59:00,66.0,66.0,29.61,SSE,161,0.0,0.0,100,-99.99,,,-99.99,,2016-12-06 07:59:00,
2016-12-06 02:05:00,67.0,67.0,29.62,West,273,0.0,2.0,100,-99.99,,,-99.99,,2016-12-06 08:05:00,
2016-12-06 02:14:00,67.0,67.0,29.62,West,273,0.0,2.0,100,-99.99,,,-99.99,,2016-12-06 08:14:00,
2016-12-06 02:25:00,68.0,68.0,29.62,SW,234,1.0,5.0,100,-99.99,,,-99.99,,2016-12-06 08:25:00,
2016-12-06 02:34:00,69.0,69.0,29.63,SSW,208,5.0,13.0,100,-99.99,,,-99.99,,2016-12-06 08:34:00,
2016-12-06 02:47:00,69.0,69.0,29.63,SSW,208,5.0,13.0,100,-99.99,,,-99.99,,2016-12-06 08:47:00,
2016-12-06 02:58:00,69.0,69.0,29.64,SW,233,3.0,12.0,100,-99.99,,,-99.99,,2016-12-06 08:58:00,
2016-12-06 03:05:00,69.0,69.0,29.64,SW,229,1.0,9.0,99,-99.99,,,-99.99,,2016-12-06 09:05:00,
2016-12-06 03:14:00,69.0,69.0,29.65,SW,217,2.0,12.0,99,-99.99,,,-99.99,,2016-12-06 09:14:00,
2016-12-06 03:23:00,69.0,69.0,29.65,SW,217,2.0,12.0,99,-99.99,,,-99.99,,2016-12-06 09:23:00,
2016-12-06 03:33:00,69.0,69.0,29.65,SW,236,3.0,11.0,99,-99.99,,,-99.99,,2016-12-06 09:33:00,
2016-12-06 03:44:00,68.0,68.0,29.66,South,182,0.0,9.0,99,-99.99,,,-99.99,,2016-12-06 09:44:00,
2016-12-06 03:54:00,68.0,68.0,29.66,South,182,0.0,9.0,99,-99.99,,,-99.99,,2016-12-06 09:54:00,
2016-12-06 04:03:00,67.0,66.0,29.67,WSW,238,7.0,16.0,98,-99.99,,,-99.99,,2016-12-06 10:03:00,
2016-12-06 04:13:00,67.0,66.0,29.67,WSW,238,7.0,16.0,98,-99.99,,,-99.99,,2016-12-06 10:13:00,
2016-12-06 04:23:00,66.0,65.0,29.67,SSE,158,3.0,16.0,97,-99.99,,,-99.99,,2016-12-06 10:23:00,
2016-12-06 04:33:00,66.0,65.0,29.67,SW,230,2.0,13.0,97,-99.99,,,-99.99,,2016-12-06 10:33:00,
2016-12-06 04:43:00,66.0,65.0,29.67,SW,230,2.0,13.0,97,-99.99,,,-99.99,,2016-12-06 10:43:00,
2016-12-06 04:54:00,65.0,64.0,29.68,SW,234,6.0,16.0,97,-99.99,,,-99.99,,2016-12-06 10:54:00,
2016-12-06 05:13:00,64.0,63.0,29.68,WSW,244,3.0,10.0,97,-99.99,,,-99.99,,2016-12-06 11:13:00,
2016-12-06 05:23:00,64.0,63.0,29.69,South,182,1.0,11.0,98,-99.99,,,-99.99,,2016-12-06 11:23:00,
2016-12-06 05:33:00,63.0,62.0,29.70,SW,215,2.0,11.0,97,-99.99,,,-99.99,,2016-12-06 11:33:00,
2016-12-06 05:43:00,63.0,62.0,29.70,SW,215,2.0,11.0,97,-99.99,,,-99.99,,2016-12-06 11:43:00,
2016-12-06 05:57:00,62.0,61.0,29.71,SE,124,1.0,9.0,96,-99.99,,,-99.99,,2016-12-06 11:57:00,
2016-12-06 06:05:00,62.0,61.0,29.72,SSW,211,1.0,8.0,96,-99.99,,,-99.99,,2016-12-06 12:05:00,
2016-12-06 06:14:00,62.0,61.0,29.72,SSW,211,1.0,8.0,96,-99.99,,,-99.99,,2016-12-06 12:14:00,